sensor_id;sensor_type;location;lat;lon;timestamp;pressure;altitude;pressure_sealevel;temperature;humidity
56992;BME280;42885;49.754;18.636;2024-01-30T00:00:03;100098.67;;;5.78;60.54
56992;BME280;42885;49.754;18.636;2024-01-30T00:02:36;100101.47;;;5.98;59.93
56992;BME280;42885;49.754;18.636;2024-01-30T00:05:07;100097.13;;;6.02;59.57
56992;BME280;42885;49.754;18.636;2024-01-30T00:07:38;100098.03;;;5.98;59.67
56992;BME280;42885;49.754;18.636;2024-01-30T00:10:09;100090.16;;;6.05;59.10
56992;BME280;42885;49.754;18.636;2024-01-30T00:12:40;100093.67;;;5.98;59.12
56992;BME280;42885;49.754;18.636;2024-01-30T00:15:11;100090.19;;;5.99;58.99
56992;BME280;42885;49.754;18.636;2024-01-30T00:17:42;100090.63;;;6.02;59.00
56992;BME280;42885;49.754;18.636;2024-01-30T00:20:13;100086.34;;;5.96;58.95
56992;BME280;42885;49.754;18.636;2024-01-30T00:22:44;100082.50;;;5.91;58.89
56992;BME280;42885;49.754;18.636;2024-01-30T00:25:15;100079.49;;;5.89;59.02
56992;BME280;42885;49.754;18.636;2024-01-30T00:27:46;100082.09;;;5.90;58.92
56992;BME280;42885;49.754;18.636;2024-01-30T00:30:17;100076.31;;;6.00;58.38
56992;BME280;42885;49.754;18.636;2024-01-30T00:32:48;100087.18;;;5.97;58.18
56992;BME280;42885;49.754;18.636;2024-01-30T00:35:18;100077.24;;;5.96;58.01
56992;BME280;42885;49.754;18.636;2024-01-30T00:37:51;100072.83;;;6.01;57.57
56992;BME280;42885;49.754;18.636;2024-01-30T00:40:22;100078.81;;;6.11;57.05
56992;BME280;42885;49.754;18.636;2024-01-30T00:42:53;100078.48;;;6.01;57.09
56992;BME280;42885;49.754;18.636;2024-01-30T00:45:25;100081.11;;;6.02;57.12
56992;BME280;42885;49.754;18.636;2024-01-30T00:47:56;100078.19;;;5.90;57.27
56992;BME280;42885;49.754;18.636;2024-01-30T00:50:27;100076.41;;;5.94;57.02
56992;BME280;42885;49.754;18.636;2024-01-30T00:52:58;100075.54;;;5.93;56.84
56992;BME280;42885;49.754;18.636;2024-01-30T00:55:29;100078.48;;;6.01;56.43
56992;BME280;42885;49.754;18.636;2024-01-30T00:58:00;100075.74;;;6.13;56.14
56992;BME280;42885;49.754;18.636;2024-01-30T01:00:31;100078.06;;;6.00;56.08
56992;BME280;42885;49.754;18.636;2024-01-30T01:03:03;100077.66;;;5.97;55.99
56992;BME280;42885;49.754;18.636;2024-01-30T01:05:34;100071.97;;;6.04;55.74
56992;BME280;42885;49.754;18.636;2024-01-30T01:08:05;100070.65;;;6.07;55.24
56992;BME280;42885;49.754;18.636;2024-01-30T01:10:36;100070.18;;;6.09;55.01
56992;BME280;42885;49.754;18.636;2024-01-30T01:13:08;100058.49;;;6.08;54.81
56992;BME280;42885;49.754;18.636;2024-01-30T01:15:39;100064.59;;;6.05;54.83
56992;BME280;42885;49.754;18.636;2024-01-30T01:18:10;100069.36;;;6.05;54.94
56992;BME280;42885;49.754;18.636;2024-01-30T01:20:41;100065.08;;;5.98;55.39
56992;BME280;42885;49.754;18.636;2024-01-30T01:23:12;100058.70;;;5.89;55.58
56992;BME280;42885;49.754;18.636;2024-01-30T01:25:43;100058.53;;;6.01;55.18
56992;BME280;42885;49.754;18.636;2024-01-30T01:28:14;100058.97;;;6.04;55.14
56992;BME280;42885;49.754;18.636;2024-01-30T01:30:45;100062.45;;;6.04;55.10
56992;BME280;42885;49.754;18.636;2024-01-30T01:33:16;100056.47;;;5.93;55.46
56992;BME280;42885;49.754;18.636;2024-01-30T01:35:47;100053.09;;;5.88;55.64
56992;BME280;42885;49.754;18.636;2024-01-30T01:38:18;100049.89;;;6.01;55.35
56992;BME280;42885;49.754;18.636;2024-01-30T01:40:48;100056.46;;;5.95;55.28
56992;BME280;42885;49.754;18.636;2024-01-30T01:43:20;100051.78;;;5.89;55.47
56992;BME280;42885;49.754;18.636;2024-01-30T01:45:51;100047.89;;;5.88;55.66
56992;BME280;42885;49.754;18.636;2024-01-30T01:48:22;100042.28;;;5.87;55.99
56992;BME280;42885;49.754;18.636;2024-01-30T01:50:53;100043.59;;;5.84;56.16
56992;BME280;42885;49.754;18.636;2024-01-30T01:53:24;100038.81;;;5.86;56.38
56992;BME280;42885;49.754;18.636;2024-01-30T01:55:55;100033.72;;;5.78;56.47
56992;BME280;42885;49.754;18.636;2024-01-30T01:58:28;100031.95;;;5.82;56.56
56992;BME280;42885;49.754;18.636;2024-01-30T02:01:00;100028.53;;;5.78;56.84
56992;BME280;42885;49.754;18.636;2024-01-30T02:03:31;100027.23;;;5.78;56.76
56992;BME280;42885;49.754;18.636;2024-01-30T02:06:03;100024.58;;;5.82;56.73
56992;BME280;42885;49.754;18.636;2024-01-30T02:08:36;100023.28;;;5.80;56.70
56992;BME280;42885;49.754;18.636;2024-01-30T02:11:08;100024.04;;;5.90;56.46
56992;BME280;42885;49.754;18.636;2024-01-30T02:13:41;100017.66;;;5.81;56.72
56992;BME280;42885;49.754;18.636;2024-01-30T02:16:12;100015.59;;;5.74;56.97
56992;BME280;42885;49.754;18.636;2024-01-30T02:18:43;100022.04;;;5.77;56.76
56992;BME280;42885;49.754;18.636;2024-01-30T02:21:18;100016.85;;;5.75;56.79
56992;BME280;42885;49.754;18.636;2024-01-30T02:23:51;100016.48;;;5.71;56.84
56992;BME280;42885;49.754;18.636;2024-01-30T02:26:23;100026.36;;;5.76;56.66
56992;BME280;42885;49.754;18.636;2024-01-30T02:28:53;100020.27;;;5.81;56.65
56992;BME280;42885;49.754;18.636;2024-01-30T02:31:25;100015.24;;;6.03;55.89
56992;BME280;42885;49.754;18.636;2024-01-30T02:33:56;100022.33;;;5.89;56.07
56992;BME280;42885;49.754;18.636;2024-01-30T02:36:27;100022.74;;;5.90;56.04
56992;BME280;42885;49.754;18.636;2024-01-30T02:38:58;100023.63;;;5.89;55.99
56992;BME280;42885;49.754;18.636;2024-01-30T02:41:29;100019.33;;;5.85;56.12
56992;BME280;42885;49.754;18.636;2024-01-30T02:44:00;100018.95;;;5.82;55.93
56992;BME280;42885;49.754;18.636;2024-01-30T02:46:31;100023.28;;;5.80;56.01
56992;BME280;42885;49.754;18.636;2024-01-30T02:49:02;100010.39;;;6.38;54.38
56992;BME280;42885;49.754;18.636;2024-01-30T02:51:33;100014.78;;;6.34;54.32
56992;BME280;42885;49.754;18.636;2024-01-30T02:54:04;100020.38;;;6.37;54.27
56992;BME280;42885;49.754;18.636;2024-01-30T02:56:34;100018.27;;;6.33;54.28
56992;BME280;42885;49.754;18.636;2024-01-30T02:59:05;100017.94;;;6.26;54.25
56992;BME280;42885;49.754;18.636;2024-01-30T03:01:45;100017.92;;;6.28;54.06
56992;BME280;42885;49.754;18.636;2024-01-30T03:04:17;100013.48;;;6.34;53.67
56992;BME280;42885;49.754;18.636;2024-01-30T03:06:48;100012.73;;;6.26;53.80
56992;BME280;42885;49.754;18.636;2024-01-30T03:09:19;100013.06;;;6.33;53.69
56992;BME280;42885;49.754;18.636;2024-01-30T03:11:50;100013.66;;;6.24;53.87
56992;BME280;42885;49.754;18.636;2024-01-30T03:14:21;100016.33;;;6.19;53.87
56992;BME280;42885;49.754;18.636;2024-01-30T03:16:52;100016.27;;;6.24;53.58
56992;BME280;42885;49.754;18.636;2024-01-30T03:19:23;100013.66;;;6.24;53.44
56992;BME280;42885;49.754;18.636;2024-01-30T03:21:54;100022.45;;;6.13;53.78
56992;BME280;42885;49.754;18.636;2024-01-30T03:24:25;100009.79;;;6.20;53.56
56992;BME280;42885;49.754;18.636;2024-01-30T03:26:56;100014.17;;;6.17;53.59
56992;BME280;42885;49.754;18.636;2024-01-30T03:29:27;100012.09;;;6.12;53.61
56992;BME280;42885;49.754;18.636;2024-01-30T03:31:57;100018.12;;;6.14;53.66
56992;BME280;42885;49.754;18.636;2024-01-30T03:34:28;100019.02;;;6.11;53.84
56992;BME280;42885;49.754;18.636;2024-01-30T03:36:59;100010.39;;;6.09;54.00
56992;BME280;42885;49.754;18.636;2024-01-30T03:39:31;100011.16;;;6.16;53.92
56992;BME280;42885;49.754;18.636;2024-01-30T03:42:02;100009.16;;;6.01;54.23
56992;BME280;42885;49.754;18.636;2024-01-30T03:44:32;100008.70;;;6.05;54.21
56992;BME280;42885;49.754;18.636;2024-01-30T03:47:03;100001.83;;;6.02;54.37
56992;BME280;42885;49.754;18.636;2024-01-30T03:49:34;100000.17;;;5.93;54.55
56992;BME280;42885;49.754;18.636;2024-01-30T03:52:05;100006.00;;;6.14;53.96
56992;BME280;42885;49.754;18.636;2024-01-30T03:54:36;100003.00;;;6.12;53.90
56992;BME280;42885;49.754;18.636;2024-01-30T03:57:07;100003.36;;;6.16;53.80
56992;BME280;42885;49.754;18.636;2024-01-30T03:59:43;100005.14;;;6.12;53.86
56992;BME280;42885;49.754;18.636;2024-01-30T04:02:14;100008.12;;;6.16;53.75
56992;BME280;42885;49.754;18.636;2024-01-30T04:04:45;100001.59;;;6.18;53.93
56992;BME280;42885;49.754;18.636;2024-01-30T04:07:18;100004.30;;;6.12;54.15
56992;BME280;42885;49.754;18.636;2024-01-30T04:09:48;100006.43;;;6.14;54.05
56992;BME280;42885;49.754;18.636;2024-01-30T04:12:20;100010.88;;;6.05;54.32
56992;BME280;42885;49.754;18.636;2024-01-30T04:14:51;100004.80;;;6.06;54.49
56992;BME280;42885;49.754;18.636;2024-01-30T04:17:22;100011.34;;;6.00;54.47
56992;BME280;42885;49.754;18.636;2024-01-30T04:19:53;100009.59;;;6.04;54.31
56992;BME280;42885;49.754;18.636;2024-01-30T04:22:24;100004.30;;;6.12;53.83
56992;BME280;42885;49.754;18.636;2024-01-30T04:24:55;100003.42;;;6.11;53.84
56992;BME280;42885;49.754;18.636;2024-01-30T04:27:26;100005.25;;;6.01;54.02
56992;BME280;42885;49.754;18.636;2024-01-30T04:29:57;100003.55;;;6.03;53.71
56992;BME280;42885;49.754;18.636;2024-01-30T04:32:28;100008.63;;;6.10;53.62
56992;BME280;42885;49.754;18.636;2024-01-30T04:34:59;100009.04;;;6.12;53.41
56992;BME280;42885;49.754;18.636;2024-01-30T04:37:30;100010.88;;;6.05;53.50
56992;BME280;42885;49.754;18.636;2024-01-30T04:40:01;100008.63;;;6.10;53.24
56992;BME280;42885;49.754;18.636;2024-01-30T04:42:32;100009.51;;;6.10;53.01
56992;BME280;42885;49.754;18.636;2024-01-30T04:45:05;100013.05;;;6.06;53.07
56992;BME280;42885;49.754;18.636;2024-01-30T04:47:37;100016.01;;;6.10;52.88
56992;BME280;42885;49.754;18.636;2024-01-30T04:50:08;100008.60;;;6.14;52.75
56992;BME280;42885;49.754;18.636;2024-01-30T04:52:39;100013.83;;;6.11;52.65
56992;BME280;42885;49.754;18.636;2024-01-30T04:55:10;100009.84;;;6.17;52.44
56992;BME280;42885;49.754;18.636;2024-01-30T04:57:41;100011.48;;;6.23;52.26
56992;BME280;42885;49.754;18.636;2024-01-30T05:00:12;100003.19;;;6.28;52.12
56992;BME280;42885;49.754;18.636;2024-01-30T05:02:43;100005.69;;;6.04;52.72
56992;BME280;42885;49.754;18.636;2024-01-30T05:05:14;100004.91;;;5.96;52.83
56992;BME280;42885;49.754;18.636;2024-01-30T05:07:46;100005.77;;;5.98;52.72
56992;BME280;42885;49.754;18.636;2024-01-30T05:10:17;100012.98;;;6.11;52.34
56992;BME280;42885;49.754;18.636;2024-01-30T05:12:48;100000.48;;;6.05;52.48
56992;BME280;42885;49.754;18.636;2024-01-30T05:15:19;100011.69;;;6.11;52.16
56992;BME280;42885;49.754;18.636;2024-01-30T05:17:50;100012.63;;;6.00;52.24
56992;BME280;42885;49.754;18.636;2024-01-30T05:20:21;100015.19;;;6.06;52.21
56992;BME280;42885;49.754;18.636;2024-01-30T05:22:52;100011.76;;;6.04;52.46
56992;BME280;42885;49.754;18.636;2024-01-30T05:25:24;100007.84;;;6.06;52.14
56992;BME280;42885;49.754;18.636;2024-01-30T05:27:56;100011.76;;;6.04;51.96
56992;BME280;42885;49.754;18.636;2024-01-30T05:30:27;100012.20;;;6.01;52.46
56992;BME280;42885;49.754;18.636;2024-01-30T05:32:58;100008.86;;;5.91;52.55
56992;BME280;42885;49.754;18.636;2024-01-30T05:35:29;100007.38;;;6.08;52.14
56992;BME280;42885;49.754;18.636;2024-01-30T05:38:01;100009.30;;;5.55;53.41
56992;BME280;42885;49.754;18.636;2024-01-30T05:40:31;100014.18;;;5.46;53.76
56992;BME280;42885;49.754;18.636;2024-01-30T05:43:03;100011.58;;;5.48;53.92
56992;BME280;42885;49.754;18.636;2024-01-30T05:45:34;100006.23;;;5.59;53.50
56992;BME280;42885;49.754;18.636;2024-01-30T05:48:06;100007.99;;;5.57;53.38
56992;BME280;42885;49.754;18.636;2024-01-30T05:50:37;100010.77;;;5.78;53.06
56992;BME280;42885;49.754;18.636;2024-01-30T05:53:07;100002.95;;;5.79;53.02
56992;BME280;42885;49.754;18.636;2024-01-30T05:55:38;100003.20;;;5.93;52.54
56992;BME280;42885;49.754;18.636;2024-01-30T05:58:09;100003.37;;;5.81;52.85
56992;BME280;42885;49.754;18.636;2024-01-30T06:00:41;99992.56;;;6.13;52.97
56992;BME280;42885;49.754;18.636;2024-01-30T06:03:12;99999.94;;;6.12;52.31
56992;BME280;42885;49.754;18.636;2024-01-30T06:05:43;99995.45;;;5.90;52.34
56992;BME280;42885;49.754;18.636;2024-01-30T06:08:14;99995.45;;;5.90;52.34
56992;BME280;42885;49.754;18.636;2024-01-30T06:10:45;100008.09;;;5.86;52.35
56992;BME280;42885;49.754;18.636;2024-01-30T06:13:17;100002.83;;;5.89;52.49
56992;BME280;42885;49.754;18.636;2024-01-30T06:15:48;100009.38;;;5.86;52.48
56992;BME280;42885;49.754;18.636;2024-01-30T06:18:19;100012.54;;;5.74;52.82
56992;BME280;42885;49.754;18.636;2024-01-30T06:20:50;100014.44;;;5.60;53.34
56992;BME280;42885;49.754;18.636;2024-01-30T06:23:21;100009.23;;;5.63;53.59
56992;BME280;42885;49.754;18.636;2024-01-30T06:25:52;100009.00;;;5.80;53.01
56992;BME280;42885;49.754;18.636;2024-01-30T06:28:23;100007.55;;;5.94;52.57
56992;BME280;42885;49.754;18.636;2024-01-30T06:30:53;100012.77;;;5.91;52.48
56992;BME280;42885;49.754;18.636;2024-01-30T06:33:25;100015.30;;;5.96;52.40
56992;BME280;42885;49.754;18.636;2024-01-30T06:35:55;100017.48;;;5.95;52.61
56992;BME280;42885;49.754;18.636;2024-01-30T06:38:26;100019.60;;;5.98;52.35
56992;BME280;42885;49.754;18.636;2024-01-30T06:40:57;100022.98;;;6.06;52.15
56992;BME280;42885;49.754;18.636;2024-01-30T06:43:28;100020.09;;;5.93;52.59
56992;BME280;42885;49.754;18.636;2024-01-30T06:45:59;100021.37;;;5.96;52.61
56992;BME280;42885;49.754;18.636;2024-01-30T06:48:30;100023.05;;;6.02;52.46
56992;BME280;42885;49.754;18.636;2024-01-30T06:51:01;100016.05;;;6.38;51.75
56992;BME280;42885;49.754;18.636;2024-01-30T06:53:32;100024.44;;;5.94;52.67
56992;BME280;42885;49.754;18.636;2024-01-30T06:56:03;100024.45;;;5.91;53.10
56992;BME280;42885;49.754;18.636;2024-01-30T06:58:34;100032.79;;;5.83;53.24
56992;BME280;42885;49.754;18.636;2024-01-30T07:01:05;100024.45;;;5.91;53.13
56992;BME280;42885;49.754;18.636;2024-01-30T07:03:36;100032.02;;;5.76;53.34
56992;BME280;42885;49.754;18.636;2024-01-30T07:06:07;100026.59;;;5.93;53.20
56992;BME280;42885;49.754;18.636;2024-01-30T07:08:38;100032.14;;;6.03;52.85
56992;BME280;42885;49.754;18.636;2024-01-30T07:11:09;100036.87;;;6.05;52.90
56992;BME280;42885;49.754;18.636;2024-01-30T07:13:42;100035.44;;;6.15;52.74
56992;BME280;42885;49.754;18.636;2024-01-30T07:16:12;100029.75;;;6.20;52.87
56992;BME280;42885;49.754;18.636;2024-01-30T07:18:44;100034.23;;;6.67;51.92
56992;BME280;42885;49.754;18.636;2024-01-30T07:21:15;100031.25;;;6.35;52.43
56992;BME280;42885;49.754;18.636;2024-01-30T07:23:46;100032.43;;;6.43;52.51
56992;BME280;42885;49.754;18.636;2024-01-30T07:26:17;100031.98;;;6.45;52.25
56992;BME280;42885;49.754;18.636;2024-01-30T07:28:48;100027.55;;;6.50;52.36
56992;BME280;42885;49.754;18.636;2024-01-30T07:31:20;100029.67;;;6.54;52.57
56992;BME280;42885;49.754;18.636;2024-01-30T07:33:52;100030.57;;;6.51;52.45
56992;BME280;42885;49.754;18.636;2024-01-30T07:36:25;100029.52;;;6.63;52.58
56992;BME280;42885;49.754;18.636;2024-01-30T07:38:56;100010.86;;;6.65;52.03
56992;BME280;42885;49.754;18.636;2024-01-30T07:41:27;100026.25;;;6.79;51.65
56992;BME280;42885;49.754;18.636;2024-01-30T07:43:58;100027.39;;;6.88;51.64
56992;BME280;42885;49.754;18.636;2024-01-30T07:46:29;100022.83;;;7.01;51.32
56992;BME280;42885;49.754;18.636;2024-01-30T07:48:59;100024.63;;;6.98;51.37
56992;BME280;42885;49.754;18.636;2024-01-30T07:51:32;100029.49;;;7.16;50.88
56992;BME280;42885;49.754;18.636;2024-01-30T07:54:02;100029.49;;;7.16;50.88
56992;BME280;42885;49.754;18.636;2024-01-30T07:56:33;100024.08;;;7.29;50.90
56992;BME280;42885;49.754;18.636;2024-01-30T07:59:04;100028.33;;;7.33;51.04
56992;BME280;42885;49.754;18.636;2024-01-30T08:01:35;100027.16;;;7.27;51.02
56992;BME280;42885;49.754;18.636;2024-01-30T08:04:06;100022.98;;;7.64;50.60
56992;BME280;42885;49.754;18.636;2024-01-30T08:06:37;100018.51;;;7.48;50.65
56992;BME280;42885;49.754;18.636;2024-01-30T08:09:08;100021.19;;;7.44;51.45
56992;BME280;42885;49.754;18.636;2024-01-30T08:11:39;100015.92;;;7.46;50.33
56992;BME280;42885;49.754;18.636;2024-01-30T08:14:10;100020.69;;;7.24;51.13
56992;BME280;42885;49.754;18.636;2024-01-30T08:16:41;100017.59;;;7.50;50.48
56992;BME280;42885;49.754;18.636;2024-01-30T08:19:12;100027.80;;;7.38;50.77
56992;BME280;42885;49.754;18.636;2024-01-30T08:21:42;100032.12;;;7.62;50.58
56992;BME280;42885;49.754;18.636;2024-01-30T08:24:13;100027.42;;;7.58;50.49
56992;BME280;42885;49.754;18.636;2024-01-30T08:26:44;100032.22;;;7.57;49.88
56992;BME280;42885;49.754;18.636;2024-01-30T08:29:15;100028.00;;;7.94;49.54
56992;BME280;42885;49.754;18.636;2024-01-30T08:31:47;100026.53;;;7.81;50.00
56992;BME280;42885;49.754;18.636;2024-01-30T08:34:18;100029.61;;;8.00;49.97
56992;BME280;42885;49.754;18.636;2024-01-30T08:36:49;100038.27;;;8.01;49.75
56992;BME280;42885;49.754;18.636;2024-01-30T08:39:20;100038.06;;;7.90;49.53
56992;BME280;42885;49.754;18.636;2024-01-30T08:41:51;100041.13;;;8.11;49.36
56992;BME280;42885;49.754;18.636;2024-01-30T08:44:22;100038.90;;;8.13;50.08
56992;BME280;42885;49.754;18.636;2024-01-30T08:46:52;100042.02;;;8.10;49.62
56992;BME280;42885;49.754;18.636;2024-01-30T08:49:23;100035.91;;;8.11;49.62
56992;BME280;42885;49.754;18.636;2024-01-30T08:51:54;100041.94;;;8.13;49.20
56992;BME280;42885;49.754;18.636;2024-01-30T08:54:25;100030.13;;;8.16;48.79
56992;BME280;42885;49.754;18.636;2024-01-30T08:56:56;100033.83;;;8.25;48.86
56992;BME280;42885;49.754;18.636;2024-01-30T08:59:27;100037.17;;;8.32;48.63
56992;BME280;42885;49.754;18.636;2024-01-30T09:01:59;100026.93;;;8.43;48.52
56992;BME280;42885;49.754;18.636;2024-01-30T09:04:29;100029.38;;;8.31;49.71
56992;BME280;42885;49.754;18.636;2024-01-30T09:07:00;100026.06;;;8.42;49.03
56992;BME280;42885;49.754;18.636;2024-01-30T09:09:31;100023.99;;;8.58;48.42
56992;BME280;42885;49.754;18.636;2024-01-30T09:12:02;100026.95;;;8.41;48.74
56992;BME280;42885;49.754;18.636;2024-01-30T09:14:35;100025.66;;;8.41;49.11
56992;BME280;42885;49.754;18.636;2024-01-30T09:17:06;100037.17;;;8.72;49.31
56992;BME280;42885;49.754;18.636;2024-01-30T09:19:37;100031.55;;;8.51;48.59
56992;BME280;42885;49.754;18.636;2024-01-30T09:22:08;100027.36;;;8.63;48.50
56992;BME280;42885;49.754;18.636;2024-01-30T09:24:40;100036.45;;;8.45;48.96
56992;BME280;42885;49.754;18.636;2024-01-30T09:27:11;100036.66;;;8.56;49.15
56992;BME280;42885;49.754;18.636;2024-01-30T09:29:42;100026.14;;;8.95;49.20
56992;BME280;42885;49.754;18.636;2024-01-30T09:32:13;100021.39;;;8.76;48.10
56992;BME280;42885;49.754;18.636;2024-01-30T09:34:44;100015.16;;;8.82;48.29
56992;BME280;42885;49.754;18.636;2024-01-30T09:37:15;100019.27;;;8.91;48.00
56992;BME280;42885;49.754;18.636;2024-01-30T09:39:47;100013.23;;;8.89;47.93
56992;BME280;42885;49.754;18.636;2024-01-30T09:42:33;100017.62;;;8.70;47.84
56992;BME280;42885;49.754;18.636;2024-01-30T09:45:02;100019.20;;;8.94;47.92
56992;BME280;42885;49.754;18.636;2024-01-30T09:47:44;100013.87;;;9.32;47.72
56992;BME280;42885;49.754;18.636;2024-01-30T09:50:16;100022.14;;;9.31;47.13
56992;BME280;42885;49.754;18.636;2024-01-30T09:52:48;100011.29;;;9.14;47.14
56992;BME280;42885;49.754;18.636;2024-01-30T09:55:20;100010.53;;;9.42;47.04
56992;BME280;42885;49.754;18.636;2024-01-30T09:57:51;100012.58;;;9.47;46.94
56992;BME280;42885;49.754;18.636;2024-01-30T10:00:22;100007.83;;;9.30;46.45
56992;BME280;42885;49.754;18.636;2024-01-30T10:02:54;100010.77;;;9.49;47.01
56992;BME280;42885;49.754;18.636;2024-01-30T10:05:27;100009.67;;;9.58;46.49
56992;BME280;42885;49.754;18.636;2024-01-30T10:07:58;100002.77;;;9.55;46.47
56992;BME280;42885;49.754;18.636;2024-01-30T10:10:28;99999.97;;;10.64;46.30
56992;BME280;42885;49.754;18.636;2024-01-30T10:12:59;100003.02;;;9.93;45.51
56992;BME280;42885;49.754;18.636;2024-01-30T10:15:30;100007.64;;;10.13;45.65
56992;BME280;42885;49.754;18.636;2024-01-30T10:18:01;99998.30;;;10.04;45.16
56992;BME280;42885;49.754;18.636;2024-01-30T10:20:33;100001.94;;;10.13;45.61
56992;BME280;42885;49.754;18.636;2024-01-30T10:23:04;99991.90;;;10.41;44.91
56992;BME280;42885;49.754;18.636;2024-01-30T10:25:35;99995.94;;;10.38;45.05
56992;BME280;42885;49.754;18.636;2024-01-30T10:28:06;99988.59;;;10.36;44.78
56992;BME280;42885;49.754;18.636;2024-01-30T10:30:37;99983.25;;;10.39;44.73
56992;BME280;42885;49.754;18.636;2024-01-30T10:33:08;99979.80;;;10.39;45.77
56992;BME280;42885;49.754;18.636;2024-01-30T10:35:39;99988.28;;;10.47;44.67
56992;BME280;42885;49.754;18.636;2024-01-30T10:38:11;99984.72;;;10.06;45.48
56992;BME280;42885;49.754;18.636;2024-01-30T10:40:45;99972.58;;;10.18;46.19
56992;BME280;42885;49.754;18.636;2024-01-30T10:43:20;99971.59;;;10.08;45.27
56992;BME280;42885;49.754;18.636;2024-01-30T10:45:54;99966.23;;;10.39;45.89
56992;BME280;42885;49.754;18.636;2024-01-30T10:48:30;99973.67;;;10.11;45.38
56992;BME280;42885;49.754;18.636;2024-01-30T10:51:04;99966.52;;;10.16;45.58
56992;BME280;42885;49.754;18.636;2024-01-30T10:53:35;99973.00;;;10.73;44.92
56992;BME280;42885;49.754;18.636;2024-01-30T10:56:07;99960.06;;;10.69;44.82
56992;BME280;42885;49.754;18.636;2024-01-30T10:58:38;99958.71;;;10.70;44.28
56992;BME280;42885;49.754;18.636;2024-01-30T11:01:10;99962.20;;;10.71;43.81
56992;BME280;42885;49.754;18.636;2024-01-30T11:03:42;99953.63;;;10.91;43.73
56992;BME280;42885;49.754;18.636;2024-01-30T11:06:14;99950.36;;;10.98;43.35
56992;BME280;42885;49.754;18.636;2024-01-30T11:08:47;99950.11;;;11.29;43.19
56992;BME280;42885;49.754;18.636;2024-01-30T11:11:19;99938.05;;;12.50;41.39
56992;BME280;42885;49.754;18.636;2024-01-30T11:13:51;99924.23;;;15.11;37.12
56992;BME280;42885;49.754;18.636;2024-01-30T11:16:22;99933.63;;;14.81;36.19
56992;BME280;42885;49.754;18.636;2024-01-30T11:18:53;99923.58;;;15.39;36.30
56992;BME280;42885;49.754;18.636;2024-01-30T11:21:25;99915.31;;;15.87;35.79
56992;BME280;42885;49.754;18.636;2024-01-30T11:23:57;99923.71;;;15.70;35.19
56992;BME280;42885;49.754;18.636;2024-01-30T11:26:28;99918.77;;;15.64;34.91
56992;BME280;42885;49.754;18.636;2024-01-30T11:29:07;99911.91;;;15.68;34.79
56992;BME280;42885;49.754;18.636;2024-01-30T11:31:37;99914.32;;;15.64;34.43
56992;BME280;42885;49.754;18.636;2024-01-30T11:34:08;99907.08;;;15.68;34.41
56992;BME280;42885;49.754;18.636;2024-01-30T11:36:41;99908.77;;;15.62;34.09
56992;BME280;42885;49.754;18.636;2024-01-30T11:39:14;99905.95;;;15.65;33.82
56992;BME280;42885;49.754;18.636;2024-01-30T11:41:46;99898.50;;;15.96;33.42
56992;BME280;42885;49.754;18.636;2024-01-30T11:44:19;99892.28;;;16.51;33.20
56992;BME280;42885;49.754;18.636;2024-01-30T11:46:52;99893.85;;;16.99;32.75
56992;BME280;42885;49.754;18.636;2024-01-30T11:49:23;99897.03;;;16.68;32.75
56992;BME280;42885;49.754;18.636;2024-01-30T11:51:54;99892.04;;;17.00;32.39
56992;BME280;42885;49.754;18.636;2024-01-30T11:54:26;99883.34;;;17.48;31.48
56992;BME280;42885;49.754;18.636;2024-01-30T11:56:57;99877.08;;;17.57;31.19
56992;BME280;42885;49.754;18.636;2024-01-30T11:59:28;99877.23;;;17.96;30.97
56992;BME280;42885;49.754;18.636;2024-01-30T12:01:59;99876.86;;;17.25;31.36
56992;BME280;42885;49.754;18.636;2024-01-30T12:04:30;99868.24;;;17.71;30.87
56992;BME280;42885;49.754;18.636;2024-01-30T12:07:01;99864.04;;;17.61;30.73
56992;BME280;42885;49.754;18.636;2024-01-30T12:09:32;99862.56;;;17.77;30.67
56992;BME280;42885;49.754;18.636;2024-01-30T12:12:03;99855.64;;;18.29;30.38
56992;BME280;42885;49.754;18.636;2024-01-30T12:14:35;99861.61;;;18.59;30.12
56992;BME280;42885;49.754;18.636;2024-01-30T12:17:07;99859.73;;;17.38;30.62
56992;BME280;42885;49.754;18.636;2024-01-30T12:19:39;99851.52;;;17.98;30.07
56992;BME280;42885;49.754;18.636;2024-01-30T12:22:11;99854.53;;;18.26;29.87
56992;BME280;42885;49.754;18.636;2024-01-30T12:24:43;99840.13;;;18.10;30.45
56992;BME280;42885;49.754;18.636;2024-01-30T12:27:15;99846.02;;;18.41;30.02
56992;BME280;42885;49.754;18.636;2024-01-30T12:29:46;99838.41;;;18.29;29.78
56992;BME280;42885;49.754;18.636;2024-01-30T12:32:18;99835.19;;;18.44;28.93
56992;BME280;42885;49.754;18.636;2024-01-30T12:34:49;99843.19;;;18.63;29.49
56992;BME280;42885;49.754;18.636;2024-01-30T12:37:20;99829.67;;;17.74;29.47
56992;BME280;42885;49.754;18.636;2024-01-30T12:39:52;99834.55;;;18.00;29.88
56992;BME280;42885;49.754;18.636;2024-01-30T12:42:23;99831.28;;;18.17;29.64
56992;BME280;42885;49.754;18.636;2024-01-30T12:44:56;99834.77;;;17.97;29.43
56992;BME280;42885;49.754;18.636;2024-01-30T12:47:27;99831.57;;;18.33;29.05
56992;BME280;42885;49.754;18.636;2024-01-30T12:49:58;99826.30;;;18.12;29.23
56992;BME280;42885;49.754;18.636;2024-01-30T12:52:29;99823.52;;;18.34;29.00
56992;BME280;42885;49.754;18.636;2024-01-30T12:55:00;99820.77;;;18.23;28.77
56992;BME280;42885;49.754;18.636;2024-01-30T12:57:31;99827.09;;;18.53;28.90
56992;BME280;42885;49.754;18.636;2024-01-30T13:00:02;99827.70;;;19.28;27.66
56992;BME280;42885;49.754;18.636;2024-01-30T13:02:33;99822.20;;;18.60;28.33
56992;BME280;42885;49.754;18.636;2024-01-30T13:05:06;99834.77;;;19.03;27.78
56992;BME280;42885;49.754;18.636;2024-01-30T13:07:37;99831.34;;;19.01;27.13
56992;BME280;42885;49.754;18.636;2024-01-30T13:10:08;99824.81;;;18.54;27.73